createdAt,value
2019-03-12T00:00:28.132Z,3.75
2019-03-12T00:03:01.236Z,3.97
2019-03-12T00:05:31.596Z,3.83
2019-03-12T00:08:01.994Z,3.69
2019-03-12T00:10:32.480Z,3.56
2019-03-12T00:13:02.860Z,3.62
2019-03-12T00:15:33.196Z,3.45
2019-03-12T00:18:03.529Z,3.65
2019-03-12T00:20:33.987Z,3.64
2019-03-12T00:23:04.322Z,3.87
2019-03-12T00:25:34.683Z,3.97
2019-03-12T00:28:05.023Z,3.85
2019-03-12T00:30:35.690Z,3.80
2019-03-12T00:33:06.034Z,3.88
2019-03-12T00:35:36.390Z,3.93
2019-03-12T00:38:07.046Z,3.80
2019-03-12T00:40:37.397Z,3.94
2019-03-12T00:43:07.762Z,4.10
2019-03-12T00:45:38.117Z,3.98
2019-03-12T00:48:08.482Z,4.06
2019-03-12T00:50:38.840Z,4.14
2019-03-12T00:53:09.208Z,4.23
2019-03-12T00:55:40.450Z,4.60
2019-03-12T00:58:10.810Z,4.02
2019-03-12T01:00:41.178Z,4.24
2019-03-12T01:03:12.424Z,4.24
2019-03-12T01:05:42.770Z,4.34
2019-03-12T01:08:13.059Z,4.30
2019-03-12T01:10:43.338Z,4.29
2019-03-12T01:13:17.672Z,4.35
2019-03-12T01:15:48.054Z,4.20
2019-03-12T01:18:18.318Z,4.33
2019-03-12T01:20:48.697Z,4.37
2019-03-12T01:23:18.975Z,4.26
2019-03-12T01:25:49.267Z,4.25
2019-03-12T01:28:19.595Z,4.28
2019-03-12T01:30:49.956Z,4.47
2019-03-12T01:33:20.246Z,4.45
2019-03-12T01:35:50.601Z,4.33
2019-03-12T01:38:20.873Z,4.23
2019-03-12T01:40:52.135Z,4.13
2019-03-12T01:43:22.468Z,4.08
2019-03-12T01:45:52.860Z,3.88
2019-03-12T01:48:23.244Z,4.02
2019-03-12T01:50:53.606Z,3.82
2019-03-12T01:53:23.884Z,3.83
2019-03-12T01:55:54.202Z,3.79
2019-03-12T01:58:24.557Z,3.84
2019-03-12T02:00:54.897Z,3.57
2019-03-12T02:03:25.336Z,3.20
2019-03-12T02:05:55.680Z,3.44
2019-03-12T02:08:25.962Z,3.25
2019-03-12T02:10:56.318Z,3.15
2019-03-12T02:13:26.677Z,3.12
2019-03-12T02:15:57.037Z,3.00
2019-03-12T02:18:27.392Z,3.09
2019-03-12T02:20:57.683Z,3.03
2019-03-12T02:23:29.166Z,3.16
2019-03-12T02:25:59.662Z,3.19
2019-03-12T02:28:30.915Z,3.38
2019-03-12T02:31:01.212Z,3.26
2019-03-12T02:33:31.661Z,3.41
2019-03-12T02:36:02.986Z,3.69
2019-03-12T02:38:33.322Z,3.53
2019-03-12T02:41:03.682Z,3.64
2019-03-12T02:43:34.054Z,3.39
2019-03-12T02:46:06.332Z,3.36
2019-03-12T02:48:36.701Z,3.18
2019-03-12T02:51:07.060Z,3.01
2019-03-12T02:53:37.406Z,3.17
2019-03-12T02:56:07.698Z,3.12
2019-03-12T02:58:37.995Z,3.04
2019-03-12T03:01:08.356Z,2.94
2019-03-12T03:03:38.644Z,2.99
2019-03-12T03:06:16.733Z,2.92
2019-03-12T03:08:47.095Z,2.92
2019-03-12T03:11:17.414Z,3.02
2019-03-12T03:13:47.735Z,2.75
2019-03-12T03:16:18.091Z,3.06
2019-03-12T03:18:48.360Z,3.10
2019-03-12T03:21:18.643Z,3.03
2019-03-12T03:23:49.989Z,3.30
2019-03-12T03:26:20.285Z,3.35
2019-03-12T03:28:50.658Z,3.21
2019-03-12T03:31:21.015Z,3.25
2019-03-12T03:33:51.317Z,3.31
2019-03-12T03:36:21.665Z,3.34
2019-03-12T03:38:52.037Z,3.42
2019-03-12T03:41:22.319Z,3.65
2019-03-12T03:43:52.609Z,3.46
2019-03-12T03:46:22.960Z,3.38
2019-03-12T03:48:53.237Z,3.68
2019-03-12T03:51:23.563Z,3.63
2019-03-12T03:53:53.929Z,3.45
2019-03-12T03:56:24.227Z,3.29
2019-03-12T03:58:54.591Z,3.42
2019-03-12T04:01:24.945Z,3.41
2019-03-12T04:03:55.295Z,3.20
2019-03-12T04:06:25.574Z,3.33
2019-03-12T04:08:55.928Z,3.07
2019-03-12T04:11:26.235Z,3.05
2019-03-12T04:13:56.569Z,3.24
2019-03-12T04:16:26.859Z,3.26
2019-03-12T04:18:57.684Z,3.17
2019-03-12T04:21:28.032Z,3.10
2019-03-12T04:23:58.324Z,3.08
2019-03-12T04:26:28.687Z,3.28
2019-03-12T04:28:58.957Z,3.20
2019-03-12T04:31:29.381Z,2.96
2019-03-12T04:34:02.991Z,2.81
2019-03-12T04:36:33.412Z,2.83
2019-03-12T04:39:05.373Z,2.73
2019-03-12T04:41:37.324Z,2.81
2019-03-12T04:44:07.733Z,2.65
2019-03-12T04:46:38.106Z,2.86
2019-03-12T04:49:08.445Z,2.93
2019-03-12T04:51:38.803Z,2.84
2019-03-12T04:54:09.166Z,2.47
2019-03-12T04:56:39.527Z,2.60
2019-03-12T04:59:09.889Z,2.42
2019-03-12T05:01:40.246Z,2.52
2019-03-12T05:04:10.633Z,2.43
2019-03-12T05:06:40.923Z,2.59
2019-03-12T05:09:11.200Z,2.76
2019-03-12T05:11:41.581Z,2.84
2019-03-12T05:14:20.290Z,2.77
2019-03-12T05:16:51.694Z,2.76
2019-03-12T05:19:22.902Z,2.77
2019-03-12T05:21:53.262Z,2.59
2019-03-12T05:24:23.640Z,2.56
2019-03-12T05:26:55.001Z,2.56
2019-03-12T05:29:25.286Z,2.47
2019-03-12T05:31:55.667Z,2.45
2019-03-12T05:34:26.035Z,2.49
2019-03-12T05:36:57.344Z,2.25
2019-03-12T05:39:27.757Z,2.33
2019-03-12T05:41:58.172Z,2.40
2019-03-12T05:44:28.459Z,2.44
2019-03-12T05:46:58.757Z,2.56
2019-03-12T05:49:29.190Z,2.48
2019-03-12T05:51:59.657Z,2.57
2019-03-12T05:54:29.940Z,2.36
2019-03-12T05:57:00.293Z,2.54
2019-03-12T05:59:30.650Z,2.32
2019-03-12T06:02:02.057Z,2.15
2019-03-12T06:04:32.436Z,2.34
2019-03-12T06:07:03.813Z,2.14
2019-03-12T06:09:34.094Z,2.35
2019-03-12T06:12:04.425Z,2.03
2019-03-12T06:14:35.032Z,1.99
2019-03-12T06:17:05.608Z,1.92
2019-03-12T06:19:35.971Z,2.01
2019-03-12T06:22:06.321Z,1.99
2019-03-12T06:24:36.706Z,1.97
2019-03-12T06:27:07.124Z,2.33
2019-03-12T06:29:37.485Z,2.21
2019-03-12T06:32:12.189Z,2.31
2019-03-12T06:34:44.254Z,2.41
2019-03-12T06:37:19.163Z,2.29
2019-03-12T06:39:54.166Z,2.48
2019-03-12T06:42:26.138Z,2.59
2019-03-12T06:44:58.140Z,2.68
2019-03-12T06:47:39.323Z,2.88
2019-03-12T06:50:14.363Z,2.92
2019-03-12T06:52:49.544Z,2.68
2019-03-12T06:55:27.700Z,2.85
2019-03-12T06:58:20.432Z,2.73
2019-03-12T07:00:58.255Z,2.91
2019-03-12T07:03:36.028Z,3.04
2019-03-12T07:06:16.790Z,3.22
2019-03-12T07:08:48.830Z,3.21
2019-03-12T07:11:26.563Z,2.98
2019-03-12T07:14:01.269Z,3.20
2019-03-12T07:16:33.287Z,3.17
2019-03-12T07:19:11.744Z,3.36
2019-03-12T07:21:46.517Z,3.30
2019-03-12T07:24:24.627Z,3.19
2019-03-12T07:26:56.623Z,3.06
2019-03-12T07:29:34.573Z,3.03
2019-03-12T07:32:06.551Z,3.13
2019-03-12T07:34:38.481Z,3.13
2019-03-12T07:37:16.222Z,3.09
2019-03-12T07:39:52.238Z,3.38
2019-03-12T07:42:33.449Z,3.66
2019-03-12T07:45:08.516Z,3.59
2019-03-12T07:47:43.322Z,3.65
2019-03-12T07:50:24.322Z,3.37
2019-03-12T07:53:12.969Z,3.45
2019-03-12T07:55:50.908Z,3.87
2019-03-12T07:58:35.647Z,4.04
2019-03-12T08:01:08.817Z,3.97
2019-03-12T08:03:43.722Z,4.42
2019-03-12T08:06:15.724Z,4.46
2019-03-12T08:09:03.229Z,4.30
2019-03-12T08:11:48.890Z,4.30
2019-03-12T08:14:35.794Z,4.27
2019-03-12T08:17:07.772Z,4.22
2019-03-12T08:19:39.773Z,4.23
2019-03-12T08:22:14.733Z,4.21
2019-03-12T08:27:38.481Z,4.39
2019-03-12T08:30:15.227Z,3.98
2019-03-12T08:32:50.073Z,4.00
2019-03-12T08:35:28.425Z,4.09
2019-03-12T08:38:00.560Z,4.52
2019-03-12T08:40:35.337Z,4.74
2019-03-12T08:43:07.338Z,4.93
2019-03-12T08:45:45.473Z,5.02
2019-03-12T08:48:19.866Z,5.01
2019-03-12T08:51:07.091Z,5.33
2019-03-12T08:53:42.143Z,5.32
2019-03-12T08:56:19.929Z,5.57
2019-03-12T08:58:57.984Z,5.78
2019-03-12T09:01:38.968Z,5.87
2019-03-12T09:04:13.662Z,5.95
2019-03-12T09:06:45.667Z,6.14
2019-03-12T09:09:26.656Z,6.35
2019-03-12T09:11:58.689Z,6.25
2019-03-12T09:14:30.623Z,5.90
2019-03-12T09:17:02.617Z,5.98
2019-03-12T09:19:40.799Z,6.08
2019-03-12T09:22:12.862Z,6.28
2019-03-12T09:25:03.881Z,6.21
2019-03-12T09:27:35.879Z,6.37
2019-03-12T09:30:11.171Z,6.14
2019-03-12T09:32:55.007Z,6.30
2019-03-12T09:35:44.337Z,6.21
2019-03-12T09:38:32.627Z,6.36
2019-03-12T09:41:06.266Z,6.78
2019-03-12T09:43:48.351Z,6.82
2019-03-12T09:46:32.579Z,6.98
2019-03-12T09:49:10.708Z,7.42
2019-03-12T09:51:52.020Z,7.25
2019-03-12T09:54:24.064Z,7.39
2019-03-12T09:57:04.847Z,7.46
2019-03-12T09:59:49.096Z,7.38
2019-03-12T10:05:14.847Z,7.20
2019-03-12T10:07:56.116Z,7.29
2019-03-12T10:10:30.830Z,6.97
2019-03-12T10:13:13.433Z,7.14
2019-03-12T10:16:01.704Z,7.31
2019-03-12T10:18:34.813Z,7.55
2019-03-12T10:21:12.930Z,7.58
2019-03-12T10:23:45.009Z,7.65
2019-03-12T10:26:27.500Z,7.68
2019-03-12T10:29:12.266Z,7.83
2019-03-12T10:31:47.239Z,7.51
2019-03-12T10:34:29.548Z,7.52
2019-03-12T10:37:16.459Z,7.52
2019-03-12T10:40:07.822Z,7.43
2019-03-12T10:42:54.045Z,7.31
2019-03-12T10:45:44.183Z,7.36
2019-03-12T10:48:15.476Z,7.36
2019-03-12T10:50:45.846Z,7.52
2019-03-12T10:53:16.186Z,7.50
2019-03-12T10:55:46.573Z,7.32
2019-03-12T10:58:16.924Z,7.55
2019-03-12T11:00:47.212Z,7.48
2019-03-12T11:03:17.681Z,7.64
2019-03-12T11:05:48.118Z,7.96
2019-03-12T11:08:18.498Z,8.60
2019-03-12T11:10:48.853Z,9.12
2019-03-12T11:13:19.227Z,9.10
2019-03-12T11:15:49.767Z,9.34
2019-03-12T11:18:20.122Z,8.94
2019-03-12T11:20:50.523Z,8.80
2019-03-12T11:23:20.812Z,8.56
2019-03-12T11:25:52.244Z,8.57
2019-03-12T11:28:22.587Z,8.53
2019-03-12T11:30:52.947Z,8.38
2019-03-12T11:33:23.219Z,8.42
2019-03-12T11:35:53.758Z,8.25
2019-03-12T11:38:24.478Z,8.25
2019-03-12T11:40:55.465Z,8.00
2019-03-12T11:43:25.856Z,8.12
2019-03-12T11:45:56.207Z,8.31
2019-03-12T11:48:26.488Z,7.96
2019-03-12T11:50:56.845Z,7.74
2019-03-12T11:53:27.205Z,7.69
2019-03-12T11:55:57.578Z,7.87
2019-03-12T11:58:28.129Z,7.84
2019-03-12T12:01:03.090Z,7.78
2019-03-12T12:03:33.606Z,7.86
2019-03-12T12:06:04.301Z,7.68
2019-03-12T12:08:34.750Z,7.79
2019-03-12T12:11:12.559Z,7.79
2019-03-12T12:13:42.999Z,7.92
2019-03-12T12:16:13.289Z,7.87
2019-03-12T12:18:43.749Z,7.79
2019-03-12T12:21:15.541Z,7.73
2019-03-12T12:23:45.986Z,7.79
2019-03-12T12:26:16.360Z,7.64
2019-03-12T12:28:46.850Z,7.36
2019-03-12T12:31:17.269Z,7.64
2019-03-12T12:33:47.726Z,7.83
2019-03-12T12:36:18.013Z,7.78
2019-03-12T12:38:48.395Z,7.86
2019-03-12T12:41:19.177Z,7.90
2019-03-12T12:43:49.523Z,7.96
2019-03-12T12:46:19.809Z,8.12
2019-03-12T12:48:53.176Z,8.07
2019-03-12T12:51:22.190Z,8.21
2019-03-12T12:53:52.632Z,8.43
2019-03-12T12:56:22.924Z,8.34
2019-03-12T12:58:53.274Z,8.34
2019-03-12T13:01:23.559Z,8.36
2019-03-12T13:03:53.918Z,8.38
2019-03-12T13:06:24.363Z,8.48
2019-03-12T13:08:54.682Z,8.88
2019-03-12T13:11:25.054Z,8.83
2019-03-12T13:13:55.344Z,9.27
2019-03-12T13:16:25.963Z,9.35
2019-03-12T13:18:57.287Z,9.44
2019-03-12T13:21:27.571Z,9.66
2019-03-12T13:23:57.876Z,9.39
2019-03-12T13:26:28.247Z,9.58
2019-03-12T13:28:58.614Z,9.53
2019-03-12T13:31:29.105Z,9.59
2019-03-12T13:33:59.554Z,9.84
2019-03-12T13:36:29.919Z,9.92
2019-03-12T13:39:00.221Z,9.76
2019-03-12T13:41:32.216Z,9.67
2019-03-12T13:44:02.714Z,9.64
2019-03-12T13:46:33.046Z,9.45
2019-03-12T13:49:03.607Z,9.41
2019-03-12T13:51:33.954Z,9.38
2019-03-12T13:54:04.284Z,9.13
2019-03-12T13:56:34.639Z,9.11
2019-03-12T13:59:05.003Z,9.27
2019-03-12T14:01:35.573Z,9.35
2019-03-12T14:04:10.698Z,9.11
2019-03-12T14:06:38.016Z,8.96
2019-03-12T14:09:08.471Z,9.07
2019-03-12T14:11:41.833Z,9.03
2019-03-12T14:14:12.183Z,9.12
2019-03-12T14:16:42.543Z,9.35
2019-03-12T14:19:12.898Z,9.53
2019-03-12T14:21:43.233Z,9.53
2019-03-12T14:24:13.587Z,9.47
2019-03-12T14:26:43.962Z,9.38
2019-03-12T14:29:14.298Z,9.20
2019-03-12T14:31:44.626Z,9.28
2019-03-12T14:34:15.771Z,9.55
2019-03-12T14:36:46.208Z,9.62
2019-03-12T14:39:16.817Z,9.64
2019-03-12T14:41:47.192Z,9.80
2019-03-12T14:44:17.543Z,9.72
2019-03-12T14:46:47.955Z,9.59
2019-03-12T14:49:18.387Z,9.59
2019-03-12T14:51:58.315Z,9.40
2019-03-12T14:54:31.115Z,9.28
2019-03-12T14:57:03.947Z,9.26
2019-03-12T14:59:34.506Z,9.14
2019-03-12T15:02:05.848Z,9.25
2019-03-12T15:04:36.235Z,9.34
2019-03-12T15:07:06.602Z,9.32
2019-03-12T15:09:36.973Z,9.22
2019-03-12T15:12:07.341Z,9.19
2019-03-12T15:14:37.944Z,9.14
2019-03-12T15:17:08.300Z,9.21
2019-03-12T15:19:38.675Z,9.11
2019-03-12T15:22:09.125Z,9.04
2019-03-12T15:24:40.460Z,8.90
2019-03-12T15:27:10.825Z,8.92
2019-03-12T15:29:42.649Z,8.80
2019-03-12T15:32:13.268Z,8.74
2019-03-12T15:34:43.631Z,8.61
2019-03-12T15:37:13.972Z,8.39
2019-03-12T15:39:44.346Z,8.49
2019-03-12T15:42:15.355Z,8.21
2019-03-12T15:44:45.999Z,8.19
2019-03-12T15:47:16.364Z,8.10
2019-03-12T15:49:46.656Z,7.99
2019-03-12T15:52:17.036Z,8.05
2019-03-12T15:54:47.377Z,8.07
2019-03-12T15:57:17.732Z,8.02
2019-03-12T15:59:48.404Z,8.03
2019-03-12T16:02:18.711Z,8.24
2019-03-12T16:04:49.104Z,8.20
2019-03-12T16:07:19.475Z,8.09
2019-03-12T16:09:49.843Z,8.15
2019-03-12T16:12:20.177Z,8.13
2019-03-12T16:14:50.560Z,8.14
2019-03-12T16:17:20.842Z,8.09
2019-03-12T16:19:51.262Z,8.06
2019-03-12T16:22:21.557Z,8.16
2019-03-12T16:24:51.922Z,8.18
2019-03-12T16:27:22.544Z,8.20
2019-03-12T16:29:53.804Z,8.15
2019-03-12T16:32:26.544Z,8.28
2019-03-12T16:34:56.905Z,8.35
2019-03-12T16:37:27.339Z,8.18
2019-03-12T16:39:57.715Z,8.10
2019-03-12T16:42:34.925Z,8.00
2019-03-12T16:45:00.169Z,7.85
2019-03-12T16:47:32.134Z,7.75
2019-03-12T16:50:02.541Z,7.79
2019-03-12T16:52:32.903Z,7.85
2019-03-12T16:55:03.403Z,7.89
2019-03-12T16:57:33.794Z,7.98
2019-03-12T17:00:11.403Z,7.79
2019-03-12T17:02:42.927Z,7.92
2019-03-12T17:05:13.524Z,7.90
2019-03-12T17:07:44.796Z,7.80
2019-03-12T17:10:21.733Z,7.78
2019-03-12T17:12:52.095Z,7.94
2019-03-12T17:15:27.439Z,7.87
2019-03-12T17:17:57.824Z,7.76
2019-03-12T17:20:28.151Z,7.81
2019-03-12T17:22:58.514Z,7.69
2019-03-12T17:25:28.831Z,7.49
2019-03-12T17:27:59.219Z,7.53
2019-03-12T17:30:29.619Z,7.54
2019-03-12T17:33:00.015Z,7.55
2019-03-12T17:35:41.552Z,7.62
2019-03-12T17:38:12.895Z,7.35
2019-03-12T17:40:43.319Z,7.35
2019-03-12T17:43:13.701Z,7.46
2019-03-12T17:45:44.089Z,7.58
2019-03-12T17:48:14.435Z,7.55
2019-03-12T17:50:46.409Z,7.49
2019-03-12T17:53:16.714Z,7.64
2019-03-12T17:55:47.087Z,7.47
2019-03-12T17:58:17.672Z,7.59
2019-03-12T18:00:48.055Z,7.33
2019-03-12T18:03:20.012Z,7.31
2019-03-12T18:05:50.398Z,7.17
2019-03-12T18:08:20.847Z,7.15
2019-03-12T18:10:51.262Z,6.92
2019-03-12T18:13:21.672Z,6.70
2019-03-12T18:15:52.033Z,6.78
2019-03-12T18:18:22.395Z,6.58
2019-03-12T18:20:52.879Z,6.74
2019-03-12T18:23:24.695Z,6.86
2019-03-12T18:25:55.356Z,6.82
2019-03-12T18:28:26.047Z,6.62
2019-03-12T18:30:56.505Z,6.65
2019-03-12T18:33:27.010Z,6.79
2019-03-12T18:35:59.249Z,6.90
2019-03-12T18:38:30.532Z,6.89
2019-03-12T18:41:01.169Z,7.01
2019-03-12T18:43:32.940Z,6.56
2019-03-12T18:46:03.698Z,6.59
2019-03-12T18:48:34.288Z,6.82
2019-03-12T18:51:04.785Z,7.02
2019-03-12T18:53:35.249Z,7.17
2019-03-12T18:56:06.168Z,7.16
2019-03-12T18:58:42.004Z,7.08
2019-03-12T19:01:15.128Z,6.76
2019-03-12T19:03:45.800Z,6.85
2019-03-12T19:06:16.520Z,6.71
2019-03-12T19:08:48.609Z,6.86
2019-03-12T19:11:19.228Z,6.81
2019-03-12T19:13:49.847Z,6.67
2019-03-12T19:16:20.824Z,6.66
2019-03-12T19:18:52.510Z,6.93
2019-03-12T19:21:23.691Z,6.84
2019-03-12T19:23:55.776Z,6.98
2019-03-12T19:26:26.563Z,7.10
2019-03-12T19:28:56.958Z,6.96
2019-03-12T19:31:30.559Z,7.08
2019-03-12T19:34:03.439Z,6.97
2019-03-12T19:36:34.079Z,7.01
2019-03-12T19:39:07.025Z,6.98
2019-03-12T19:41:38.318Z,6.90
2019-03-12T19:44:11.206Z,6.98
2019-03-12T19:46:43.150Z,7.15
2019-03-12T19:49:14.254Z,7.07
2019-03-12T19:51:50.312Z,7.04
2019-03-12T19:54:25.079Z,7.15
2019-03-12T19:56:55.652Z,7.04
2019-03-12T19:59:26.079Z,6.88
2019-03-12T20:01:56.503Z,7.03
2019-03-12T20:04:27.889Z,7.18
2019-03-12T20:06:58.449Z,6.99
2019-03-12T20:09:35.078Z,6.99
2019-03-12T20:12:20.564Z,6.74
2019-03-12T20:15:16.570Z,6.75
2019-03-12T20:18:19.058Z,6.65
2019-03-12T20:21:18.223Z,6.70
2019-03-12T20:24:13.249Z,6.56
2019-03-12T20:27:03.557Z,6.62
2019-03-12T20:30:03.061Z,6.65
2019-03-12T20:33:02.986Z,6.47
2019-03-12T20:35:56.953Z,6.54
2019-03-12T20:38:48.738Z,6.32
2019-03-12T20:41:28.530Z,6.52
2019-03-12T20:44:14.468Z,6.51
2019-03-12T20:47:03.181Z,6.50
2019-03-12T20:50:10.356Z,6.60
2019-03-12T20:52:55.604Z,6.51
2019-03-12T20:55:42.032Z,6.20
2019-03-12T20:58:46.659Z,6.03
2019-03-12T21:01:53.315Z,5.97
2019-03-12T21:05:00.439Z,6.26
2019-03-12T21:08:07.079Z,6.25
2019-03-12T21:11:00.133Z,6.32
2019-03-12T21:13:48.254Z,6.02
2019-03-12T21:16:55.399Z,6.22
2019-03-12T21:19:29.025Z,6.37
2019-03-12T21:22:08.500Z,5.87
2019-03-12T21:25:18.764Z,5.80
2019-03-12T21:28:04.482Z,5.98
2019-03-12T21:30:35.165Z,6.04
2019-03-12T21:33:15.274Z,6.14
2019-03-12T21:35:41.204Z,5.95
2019-03-12T21:38:13.202Z,5.96
2019-03-12T21:40:45.087Z,6.04
2019-03-12T21:43:16.524Z,6.14
2019-03-12T21:45:47.165Z,6.08
2019-03-12T21:48:17.463Z,6.23
2019-03-12T21:50:47.914Z,6.03
2019-03-12T21:53:18.286Z,6.22
2019-03-12T21:55:48.778Z,5.99
2019-03-12T21:58:19.171Z,5.90
2019-03-12T22:00:49.550Z,6.23
2019-03-12T22:03:19.948Z,5.94
2019-03-12T22:05:50.346Z,5.85
2019-03-12T22:08:20.615Z,5.92
2019-03-12T22:10:50.994Z,5.98
2019-03-12T22:13:21.350Z,6.16
2019-03-12T22:15:52.773Z,5.92
2019-03-12T22:18:23.111Z,6.01
2019-03-12T22:20:53.467Z,6.03
2019-03-12T22:23:25.427Z,6.21
2019-03-12T22:25:56.142Z,6.21
2019-03-12T22:28:26.618Z,6.16
2019-03-12T22:30:56.982Z,6.19
2019-03-12T22:33:27.338Z,6.01
2019-03-12T22:35:57.703Z,6.05
2019-03-12T22:38:28.006Z,6.22
2019-03-12T22:40:58.444Z,6.13
2019-03-12T22:43:28.730Z,6.05
2019-03-12T22:45:59.054Z,5.94
2019-03-12T22:48:29.536Z,5.86
2019-03-12T22:51:00.792Z,6.04
2019-03-12T22:53:32.283Z,5.70
2019-03-12T22:56:02.625Z,6.14
2019-03-12T22:58:32.931Z,6.08
2019-03-12T23:01:21.199Z,6.29
2019-03-12T23:04:09.525Z,6.03
2019-03-12T23:06:57.925Z,6.18
2019-03-12T23:09:42.788Z,6.08
2019-03-12T23:12:16.964Z,6.09
2019-03-12T23:14:48.459Z,5.94
2019-03-12T23:17:20.347Z,6.16
2019-03-12T23:19:50.719Z,6.38
2019-03-12T23:22:21.099Z,6.58
2019-03-12T23:24:52.559Z,6.48
2019-03-12T23:27:22.872Z,6.37
2019-03-12T23:29:53.199Z,6.29
2019-03-12T23:32:23.517Z,6.21
2019-03-12T23:34:53.910Z,6.43
2019-03-12T23:37:25.361Z,6.34
2019-03-12T23:39:55.681Z,6.40
2019-03-12T23:42:26.349Z,6.29
2019-03-12T23:44:56.724Z,6.42
2019-03-12T23:47:27.187Z,6.15
2019-03-12T23:49:57.575Z,6.21
2019-03-12T23:52:27.957Z,6.30
2019-03-12T23:54:58.348Z,6.60
2019-03-12T23:57:28.730Z,6.28
2019-03-12T23:59:59.126Z,6.31
